sensor_id;sensor_type;location;lat;lon;timestamp;pressure;altitude;pressure_sealevel;temperature;humidity
53390;BME280;39288;42.970;1.524;2023-12-29T00:00:23;96226.16;;;2.21;75.29
53390;BME280;39288;42.970;1.524;2023-12-29T00:01:23;96221.28;;;2.13;74.49
53390;BME280;39288;42.970;1.524;2023-12-29T00:02:24;96221.88;;;2.04;74.50
53390;BME280;39288;42.970;1.524;2023-12-29T00:03:25;96226.69;;;1.83;75.21
53390;BME280;39288;42.970;1.524;2023-12-29T00:04:26;96226.69;;;1.83;74.94
53390;BME280;39288;42.970;1.524;2023-12-29T00:05:26;96221.09;;;1.80;75.09
53390;BME280;39288;42.970;1.524;2023-12-29T00:06:27;96215.59;;;1.93;75.27
53390;BME280;39288;42.970;1.524;2023-12-29T00:07:27;96219.91;;;2.11;75.13
53390;BME280;39288;42.970;1.524;2023-12-29T00:08:28;96216.00;;;2.25;74.08
53390;BME280;39288;42.970;1.524;2023-12-29T00:09:28;96216.03;;;2.02;74.25
53390;BME280;39288;42.970;1.524;2023-12-29T00:10:29;96212.66;;;1.90;73.97
53390;BME280;39288;42.970;1.524;2023-12-29T00:11:29;96208.63;;;1.99;72.62
53390;BME280;39288;42.970;1.524;2023-12-29T00:12:30;96209.78;;;1.91;74.23
53390;BME280;39288;42.970;1.524;2023-12-29T00:13:30;96208.09;;;1.85;74.67
53390;BME280;39288;42.970;1.524;2023-12-29T00:14:30;96210.34;;;1.93;75.03
53390;BME280;39288;42.970;1.524;2023-12-29T00:15:31;96209.91;;;1.73;75.90
53390;BME280;39288;42.970;1.524;2023-12-29T00:16:32;96205.00;;;1.76;75.66
53390;BME280;39288;42.970;1.524;2023-12-29T00:17:32;96215.06;;;1.79;75.67
53390;BME280;39288;42.970;1.524;2023-12-29T00:18:37;96207.84;;;1.87;75.98
53390;BME280;39288;42.970;1.524;2023-12-29T00:19:37;96208.28;;;1.95;75.32
53390;BME280;39288;42.970;1.524;2023-12-29T00:20:38;96206.81;;;1.99;75.79
53390;BME280;39288;42.970;1.524;2023-12-29T00:21:38;96207.34;;;2.01;75.06
53390;BME280;39288;42.970;1.524;2023-12-29T00:22:39;96206.09;;;2.04;75.65
53390;BME280;39288;42.970;1.524;2023-12-29T00:23:39;96201.44;;;1.94;75.80
53390;BME280;39288;42.970;1.524;2023-12-29T00:24:39;96205.22;;;1.87;75.77
53390;BME280;39288;42.970;1.524;2023-12-29T00:25:40;96201.47;;;1.71;76.21
53390;BME280;39288;42.970;1.524;2023-12-29T00:26:40;96198.06;;;1.59;76.91
53390;BME280;39288;42.970;1.524;2023-12-29T00:27:41;96201.81;;;1.63;76.65
53390;BME280;39288;42.970;1.524;2023-12-29T00:28:41;96203.19;;;1.65;76.32
53390;BME280;39288;42.970;1.524;2023-12-29T00:29:42;96200.78;;;1.87;75.61
53390;BME280;39288;42.970;1.524;2023-12-29T00:30:43;96198.72;;;1.89;75.29
53390;BME280;39288;42.970;1.524;2023-12-29T00:31:43;96191.66;;;1.78;76.10
53390;BME280;39288;42.970;1.524;2023-12-29T00:32:43;96196.22;;;1.71;76.90
53390;BME280;39288;42.970;1.524;2023-12-29T00:33:44;96203.75;;;1.79;76.34
53390;BME280;39288;42.970;1.524;2023-12-29T00:34:44;96207.47;;;2.06;74.32
53390;BME280;39288;42.970;1.524;2023-12-29T00:35:45;96202.44;;;2.05;73.66
53390;BME280;39288;42.970;1.524;2023-12-29T00:36:45;96202.91;;;2.02;74.31
53390;BME280;39288;42.970;1.524;2023-12-29T00:37:45;96202.59;;;1.98;74.85
53390;BME280;39288;42.970;1.524;2023-12-29T00:38:46;96205.53;;;1.90;75.53
53390;BME280;39288;42.970;1.524;2023-12-29T00:39:46;96197.00;;;1.83;75.54
53390;BME280;39288;42.970;1.524;2023-12-29T00:40:46;96200.06;;;1.80;75.77
53390;BME280;39288;42.970;1.524;2023-12-29T00:41:47;96196.09;;;1.77;76.39
53390;BME280;39288;42.970;1.524;2023-12-29T00:42:47;96199.41;;;1.73;76.13
53390;BME280;39288;42.970;1.524;2023-12-29T00:43:47;96197.66;;;1.90;76.04
53390;BME280;39288;42.970;1.524;2023-12-29T00:44:48;96185.22;;;1.97;76.11
53390;BME280;39288;42.970;1.524;2023-12-29T00:45:48;96192.75;;;1.94;76.03
53390;BME280;39288;42.970;1.524;2023-12-29T00:46:49;96197.88;;;2.00;76.24
53390;BME280;39288;42.970;1.524;2023-12-29T00:47:49;96189.13;;;1.83;75.56
53390;BME280;39288;42.970;1.524;2023-12-29T00:48:51;96185.25;;;1.51;76.67
53390;BME280;39288;42.970;1.524;2023-12-29T00:49:52;96190.28;;;1.40;76.95
53390;BME280;39288;42.970;1.524;2023-12-29T00:50:52;96191.66;;;1.43;77.99
53390;BME280;39288;42.970;1.524;2023-12-29T00:51:53;96188.59;;;1.46;77.71
53390;BME280;39288;42.970;1.524;2023-12-29T00:52:53;96193.63;;;1.59;77.23
53390;BME280;39288;42.970;1.524;2023-12-29T00:53:54;96195.66;;;1.69;77.24
53390;BME280;39288;42.970;1.524;2023-12-29T00:54:54;96194.38;;;1.71;76.94
53390;BME280;39288;42.970;1.524;2023-12-29T00:55:54;96194.16;;;1.73;76.35
53390;BME280;39288;42.970;1.524;2023-12-29T00:56:55;96187.22;;;1.67;77.08
53390;BME280;39288;42.970;1.524;2023-12-29T00:57:55;96195.31;;;1.77;76.45
53390;BME280;39288;42.970;1.524;2023-12-29T00:58:56;96199.38;;;1.96;75.57
53390;BME280;39288;42.970;1.524;2023-12-29T00:59:56;96195.25;;;2.00;75.25
53390;BME280;39288;42.970;1.524;2023-12-29T01:00:56;96195.94;;;2.07;74.13
53390;BME280;39288;42.970;1.524;2023-12-29T01:01:57;96200.91;;;2.20;73.72
53390;BME280;39288;42.970;1.524;2023-12-29T01:02:57;96200.13;;;2.20;75.00
53390;BME280;39288;42.970;1.524;2023-12-29T01:03:57;96196.59;;;2.14;74.92
53390;BME280;39288;42.970;1.524;2023-12-29T01:04:58;96197.41;;;2.15;75.34
53390;BME280;39288;42.970;1.524;2023-12-29T01:05:58;96197.66;;;2.02;75.23
53390;BME280;39288;42.970;1.524;2023-12-29T01:06:59;96199.84;;;1.93;75.75
53390;BME280;39288;42.970;1.524;2023-12-29T01:07:59;96198.59;;;1.84;76.41
53390;BME280;39288;42.970;1.524;2023-12-29T01:09:00;96194.59;;;1.70;75.97
53390;BME280;39288;42.970;1.524;2023-12-29T01:10:00;96194.16;;;1.61;76.61
53390;BME280;39288;42.970;1.524;2023-12-29T01:11:01;96199.31;;;1.56;77.14
53390;BME280;39288;42.970;1.524;2023-12-29T01:12:02;96201.00;;;1.51;77.30
53390;BME280;39288;42.970;1.524;2023-12-29T01:13:02;96198.06;;;1.59;77.59
53390;BME280;39288;42.970;1.524;2023-12-29T01:14:03;96202.84;;;1.73;77.24
53390;BME280;39288;42.970;1.524;2023-12-29T01:15:04;96194.59;;;1.70;76.74
53390;BME280;39288;42.970;1.524;2023-12-29T01:16:04;96199.19;;;1.86;76.00
53390;BME280;39288;42.970;1.524;2023-12-29T01:17:05;96195.97;;;1.96;75.85
53390;BME280;39288;42.970;1.524;2023-12-29T01:18:05;96193.19;;;2.02;75.35
53390;BME280;39288;42.970;1.524;2023-12-29T01:19:05;96195.97;;;1.84;75.67
53390;BME280;39288;42.970;1.524;2023-12-29T01:20:06;96196.22;;;1.71;76.36
53390;BME280;39288;42.970;1.524;2023-12-29T01:21:08;96196.34;;;1.76;77.06
53390;BME280;39288;42.970;1.524;2023-12-29T01:22:08;96201.34;;;1.89;77.11
53390;BME280;39288;42.970;1.524;2023-12-29T01:23:08;96197.91;;;1.89;77.04
53390;BME280;39288;42.970;1.524;2023-12-29T01:24:09;96199.31;;;1.79;77.30
53390;BME280;39288;42.970;1.524;2023-12-29T01:25:09;96197.44;;;1.80;76.91
53390;BME280;39288;42.970;1.524;2023-12-29T01:26:09;96198.16;;;1.87;76.50
53390;BME280;39288;42.970;1.524;2023-12-29T01:27:10;96198.38;;;1.85;77.33
53390;BME280;39288;42.970;1.524;2023-12-29T01:28:10;96202.69;;;1.80;76.95
53390;BME280;39288;42.970;1.524;2023-12-29T01:29:11;96198.16;;;1.87;76.86
53390;BME280;39288;42.970;1.524;2023-12-29T01:30:11;96200.41;;;1.95;76.67
53390;BME280;39288;42.970;1.524;2023-12-29T01:31:12;96201.00;;;1.97;76.77
53390;BME280;39288;42.970;1.524;2023-12-29T01:32:14;96201.44;;;1.94;76.13
53390;BME280;39288;42.970;1.524;2023-12-29T01:33:14;96198.47;;;1.91;76.62
53390;BME280;39288;42.970;1.524;2023-12-29T01:34:14;96199.97;;;1.87;76.88
53390;BME280;39288;42.970;1.524;2023-12-29T01:35:15;96201.22;;;1.84;77.01
53390;BME280;39288;42.970;1.524;2023-12-29T01:36:18;96202.69;;;1.92;76.13
53390;BME280;39288;42.970;1.524;2023-12-29T01:37:19;96203.47;;;2.15;73.91
53390;BME280;39288;42.970;1.524;2023-12-29T01:38:19;96204.91;;;2.23;73.52
53390;BME280;39288;42.970;1.524;2023-12-29T01:39:20;96199.53;;;1.90;76.09
53390;BME280;39288;42.970;1.524;2023-12-29T01:40:20;96204.44;;;1.63;76.65
53390;BME280;39288;42.970;1.524;2023-12-29T01:41:20;96197.94;;;1.54;76.89
53390;BME280;39288;42.970;1.524;2023-12-29T01:42:21;96195.31;;;1.54;76.81
53390;BME280;39288;42.970;1.524;2023-12-29T01:43:21;96189.50;;;1.63;77.25
53390;BME280;39288;42.970;1.524;2023-12-29T01:44:22;96199.63;;;1.71;76.75
53390;BME280;39288;42.970;1.524;2023-12-29T01:45:24;96201.00;;;1.74;76.81
53390;BME280;39288;42.970;1.524;2023-12-29T01:46:28;96203.31;;;1.59;76.99
53390;BME280;39288;42.970;1.524;2023-12-29T01:47:29;96212.00;;;1.47;76.65
53390;BME280;39288;42.970;1.524;2023-12-29T01:48:29;96203.09;;;1.48;77.43
53390;BME280;39288;42.970;1.524;2023-12-29T01:49:30;96208.34;;;1.48;77.22
53390;BME280;39288;42.970;1.524;2023-12-29T01:50:30;96208.09;;;1.38;78.04
53390;BME280;39288;42.970;1.524;2023-12-29T01:51:32;96203.41;;;1.64;77.86
53390;BME280;39288;42.970;1.524;2023-12-29T01:52:33;96205.59;;;1.55;77.21
53390;BME280;39288;42.970;1.524;2023-12-29T01:53:33;96206.50;;;1.37;77.76
53390;BME280;39288;42.970;1.524;2023-12-29T01:54:37;96206.03;;;1.29;78.50
53390;BME280;39288;42.970;1.524;2023-12-29T01:55:42;96212.06;;;1.18;79.10
53390;BME280;39288;42.970;1.524;2023-12-29T01:56:43;96216.53;;;1.17;78.56
53390;BME280;39288;42.970;1.524;2023-12-29T01:57:45;96210.88;;;1.02;78.97
53390;BME280;39288;42.970;1.524;2023-12-29T01:58:48;96215.44;;;0.95;79.31
53390;BME280;39288;42.970;1.524;2023-12-29T01:59:49;96214.31;;;1.02;79.38
53390;BME280;39288;42.970;1.524;2023-12-29T02:00:49;96214.81;;;1.23;79.50
53390;BME280;39288;42.970;1.524;2023-12-29T02:01:50;96211.28;;;1.17;78.51
53390;BME280;39288;42.970;1.524;2023-12-29T02:02:50;96212.28;;;1.16;78.91
53390;BME280;39288;42.970;1.524;2023-12-29T02:03:51;96204.28;;;1.11;78.55
53390;BME280;39288;42.970;1.524;2023-12-29T02:04:51;96212.63;;;1.08;78.60
53390;BME280;39288;42.970;1.524;2023-12-29T02:05:54;96209.69;;;1.16;78.23
53390;BME280;39288;42.970;1.524;2023-12-29T02:06:55;96207.50;;;1.25;76.31
53390;BME280;39288;42.970;1.524;2023-12-29T02:07:56;96209.56;;;1.23;76.49
53390;BME280;39288;42.970;1.524;2023-12-29T02:08:57;96204.22;;;1.29;75.72
53390;BME280;39288;42.970;1.524;2023-12-29T02:09:58;96203.19;;;1.54;76.56
53390;BME280;39288;42.970;1.524;2023-12-29T02:10:59;96204.78;;;1.55;76.39
53390;BME280;39288;42.970;1.524;2023-12-29T02:12:00;96203.41;;;1.52;75.84
53390;BME280;39288;42.970;1.524;2023-12-29T02:13:00;96202.38;;;1.41;76.64
53390;BME280;39288;42.970;1.524;2023-12-29T02:14:01;96204.66;;;1.26;77.39
53390;BME280;39288;42.970;1.524;2023-12-29T02:15:03;96202.50;;;1.23;77.29
53390;BME280;39288;42.970;1.524;2023-12-29T02:16:12;96209.34;;;1.24;77.17
53390;BME280;39288;42.970;1.524;2023-12-29T02:17:26;96200.53;;;1.30;76.11
53390;BME280;39288;42.970;1.524;2023-12-29T02:18:30;96204.66;;;1.26;75.45
53390;BME280;39288;42.970;1.524;2023-12-29T02:20:38;96195.22;;;1.37;75.74
53390;BME280;39288;42.970;1.524;2023-12-29T02:21:39;96195.09;;;1.43;75.35
53390;BME280;39288;42.970;1.524;2023-12-29T02:22:39;96193.03;;;1.45;74.71
53390;BME280;39288;42.970;1.524;2023-12-29T02:23:40;96199.53;;;1.43;75.04
53390;BME280;39288;42.970;1.524;2023-12-29T02:24:50;96195.88;;;1.44;75.25
53390;BME280;39288;42.970;1.524;2023-12-29T02:25:53;96188.00;;;1.32;75.60
53390;BME280;39288;42.970;1.524;2023-12-29T02:28:23;96191.44;;;1.44;75.65
53390;BME280;39288;42.970;1.524;2023-12-29T02:29:25;96191.66;;;1.55;74.91
53390;BME280;39288;42.970;1.524;2023-12-29T02:30:36;96194.28;;;1.66;74.66
53390;BME280;39288;42.970;1.524;2023-12-29T02:31:39;96195.09;;;1.67;75.11
53390;BME280;39288;42.970;1.524;2023-12-29T02:32:43;96191.88;;;1.65;75.58
53390;BME280;39288;42.970;1.524;2023-12-29T02:33:45;96184.38;;;1.57;76.02
53390;BME280;39288;42.970;1.524;2023-12-29T02:34:47;96184.72;;;1.48;76.68
53390;BME280;39288;42.970;1.524;2023-12-29T02:35:52;96187.44;;;1.65;77.07
53390;BME280;39288;42.970;1.524;2023-12-29T02:36:53;96185.03;;;1.75;76.85
53390;BME280;39288;42.970;1.524;2023-12-29T02:37:54;96180.47;;;1.71;76.45
53390;BME280;39288;42.970;1.524;2023-12-29T02:38:55;96182.97;;;1.66;77.20
53390;BME280;39288;42.970;1.524;2023-12-29T02:39:58;96179.34;;;1.43;77.53
53390;BME280;39288;42.970;1.524;2023-12-29T02:40:59;96179.56;;;1.65;77.26
53390;BME280;39288;42.970;1.524;2023-12-29T02:42:00;96177.81;;;1.82;76.85
53390;BME280;39288;42.970;1.524;2023-12-29T02:43:00;96177.72;;;1.89;76.51
53390;BME280;39288;42.970;1.524;2023-12-29T02:44:00;96187.41;;;1.89;75.69
53390;BME280;39288;42.970;1.524;2023-12-29T02:45:01;96185.25;;;1.74;76.56
53390;BME280;39288;42.970;1.524;2023-12-29T02:46:01;96191.16;;;1.81;76.54
53390;BME280;39288;42.970;1.524;2023-12-29T02:47:02;96188.66;;;1.86;76.51
53390;BME280;39288;42.970;1.524;2023-12-29T02:48:04;96183.28;;;1.93;76.25
53390;BME280;39288;42.970;1.524;2023-12-29T02:49:04;96181.66;;;2.03;75.61
53390;BME280;39288;42.970;1.524;2023-12-29T02:50:05;96184.66;;;1.95;76.51
53390;BME280;39288;42.970;1.524;2023-12-29T02:51:05;96178.56;;;2.06;75.63
53390;BME280;39288;42.970;1.524;2023-12-29T02:52:08;96179.25;;;2.13;74.81
53390;BME280;39288;42.970;1.524;2023-12-29T02:53:09;96179.28;;;2.30;73.94
53390;BME280;39288;42.970;1.524;2023-12-29T02:54:09;96176.25;;;2.21;74.00
53390;BME280;39288;42.970;1.524;2023-12-29T02:55:09;96172.19;;;2.02;74.61
53390;BME280;39288;42.970;1.524;2023-12-29T02:56:10;96174.16;;;1.83;75.44
53390;BME280;39288;42.970;1.524;2023-12-29T02:57:10;96163.56;;;1.78;75.80
53390;BME280;39288;42.970;1.524;2023-12-29T02:58:10;96166.50;;;1.82;76.19
53390;BME280;39288;42.970;1.524;2023-12-29T02:59:11;96164.38;;;1.67;76.29
53390;BME280;39288;42.970;1.524;2023-12-29T03:00:12;96163.22;;;1.63;76.62
53390;BME280;39288;42.970;1.524;2023-12-29T03:01:12;96163.59;;;1.67;76.87
53390;BME280;39288;42.970;1.524;2023-12-29T03:02:12;96164.69;;;1.71;76.14
53390;BME280;39288;42.970;1.524;2023-12-29T03:03:13;96156.34;;;1.85;76.37
53390;BME280;39288;42.970;1.524;2023-12-29T03:04:13;96152.75;;;2.03;74.86
53390;BME280;39288;42.970;1.524;2023-12-29T03:05:14;96155.75;;;1.95;75.49
53390;BME280;39288;42.970;1.524;2023-12-29T03:06:14;96153.22;;;2.00;74.50
53390;BME280;39288;42.970;1.524;2023-12-29T03:07:15;96155.38;;;2.03;74.18
53390;BME280;39288;42.970;1.524;2023-12-29T03:08:15;96162.59;;;2.08;73.75
53390;BME280;39288;42.970;1.524;2023-12-29T03:09:16;96148.84;;;2.17;72.63
53390;BME280;39288;42.970;1.524;2023-12-29T03:10:16;96147.03;;;2.18;72.31
53390;BME280;39288;42.970;1.524;2023-12-29T03:11:16;96143.50;;;2.01;73.58
53390;BME280;39288;42.970;1.524;2023-12-29T03:12:17;96143.41;;;2.07;72.19
53390;BME280;39288;42.970;1.524;2023-12-29T03:13:17;96141.66;;;2.13;72.25
53390;BME280;39288;42.970;1.524;2023-12-29T03:14:18;96135.78;;;2.22;71.77
53390;BME280;39288;42.970;1.524;2023-12-29T03:15:18;96153.63;;;2.20;72.44
53390;BME280;39288;42.970;1.524;2023-12-29T03:16:18;96140.75;;;2.19;72.36
53390;BME280;39288;42.970;1.524;2023-12-29T03:17:19;96146.59;;;2.09;73.04
53390;BME280;39288;42.970;1.524;2023-12-29T03:18:19;96140.88;;;2.01;74.15
53390;BME280;39288;42.970;1.524;2023-12-29T03:19:20;96148.25;;;1.87;73.86
53390;BME280;39288;42.970;1.524;2023-12-29T03:20:20;96139.13;;;1.78;75.18
53390;BME280;39288;42.970;1.524;2023-12-29T03:21:21;96136.84;;;1.70;74.40
53390;BME280;39288;42.970;1.524;2023-12-29T03:22:22;96133.75;;;1.73;74.26
53390;BME280;39288;42.970;1.524;2023-12-29T03:23:22;96136.38;;;1.84;73.41
53390;BME280;39288;42.970;1.524;2023-12-29T03:24:22;96130.28;;;1.96;72.30
53390;BME280;39288;42.970;1.524;2023-12-29T03:25:23;96141.75;;;1.78;72.68
53390;BME280;39288;42.970;1.524;2023-12-29T03:26:23;96130.34;;;1.72;73.10
53390;BME280;39288;42.970;1.524;2023-12-29T03:27:24;96126.69;;;1.73;73.60
53390;BME280;39288;42.970;1.524;2023-12-29T03:28:24;96133.06;;;1.89;74.15
53390;BME280;39288;42.970;1.524;2023-12-29T03:29:24;96132.38;;;1.82;74.98
53390;BME280;39288;42.970;1.524;2023-12-29T03:30:25;96135.94;;;1.76;74.39
53390;BME280;39288;42.970;1.524;2023-12-29T03:31:25;96132.28;;;1.77;74.23
53390;BME280;39288;42.970;1.524;2023-12-29T03:32:25;96130.81;;;1.69;74.79
53390;BME280;39288;42.970;1.524;2023-12-29T03:33:26;96129.69;;;1.65;75.79
53390;BME280;39288;42.970;1.524;2023-12-29T03:34:26;96129.44;;;1.67;75.57
53390;BME280;39288;42.970;1.524;2023-12-29T03:35:26;96125.44;;;1.64;75.66
53390;BME280;39288;42.970;1.524;2023-12-29T03:36:27;96125.38;;;1.59;75.91
53390;BME280;39288;42.970;1.524;2023-12-29T03:37:27;96125.69;;;1.63;75.26
53390;BME280;39288;42.970;1.524;2023-12-29T03:38:28;96131.13;;;1.73;75.25
53390;BME280;39288;42.970;1.524;2023-12-29T03:39:28;96117.13;;;1.67;76.17
53390;BME280;39288;42.970;1.524;2023-12-29T03:40:29;96121.00;;;1.65;75.86
53390;BME280;39288;42.970;1.524;2023-12-29T03:41:30;96112.53;;;1.74;75.30
53390;BME280;39288;42.970;1.524;2023-12-29T03:42:30;96111.19;;;2.00;74.47
53390;BME280;39288;42.970;1.524;2023-12-29T03:43:31;96116.75;;;2.15;73.62
53390;BME280;39288;42.970;1.524;2023-12-29T03:44:31;96118.22;;;2.11;74.14
53390;BME280;39288;42.970;1.524;2023-12-29T03:45:31;96104.44;;;2.04;74.07
53390;BME280;39288;42.970;1.524;2023-12-29T03:46:32;96103.69;;;1.92;74.87
53390;BME280;39288;42.970;1.524;2023-12-29T03:47:32;96100.19;;;1.87;75.34
53390;BME280;39288;42.970;1.524;2023-12-29T03:48:33;96101.63;;;1.94;74.91
53390;BME280;39288;42.970;1.524;2023-12-29T03:49:33;96100.50;;;1.90;75.34
53390;BME280;39288;42.970;1.524;2023-12-29T03:50:34;96106.75;;;2.01;75.05
53390;BME280;39288;42.970;1.524;2023-12-29T03:51:35;96103.69;;;1.92;75.36
53390;BME280;39288;42.970;1.524;2023-12-29T03:52:35;96107.81;;;1.88;75.63
53390;BME280;39288;42.970;1.524;2023-12-29T03:53:36;96113.06;;;1.88;76.00
53390;BME280;39288;42.970;1.524;2023-12-29T03:54:36;96106.91;;;1.82;75.75
53390;BME280;39288;42.970;1.524;2023-12-29T03:55:36;96099.84;;;1.83;76.35
53390;BME280;39288;42.970;1.524;2023-12-29T03:56:37;96099.22;;;1.93;75.81
53390;BME280;39288;42.970;1.524;2023-12-29T03:57:38;96103.00;;;1.97;75.77
53390;BME280;39288;42.970;1.524;2023-12-29T03:58:38;96110.72;;;2.03;75.81
53390;BME280;39288;42.970;1.524;2023-12-29T03:59:38;96099.66;;;2.01;75.29
53390;BME280;39288;42.970;1.524;2023-12-29T04:00:39;96103.78;;;1.97;75.23
53390;BME280;39288;42.970;1.524;2023-12-29T04:01:41;96106.84;;;2.06;75.33
53390;BME280;39288;42.970;1.524;2023-12-29T04:02:42;96111.56;;;2.20;75.06
53390;BME280;39288;42.970;1.524;2023-12-29T04:03:43;96106.47;;;2.14;75.28
53390;BME280;39288;42.970;1.524;2023-12-29T04:04:44;96103.41;;;2.05;75.39
53390;BME280;39288;42.970;1.524;2023-12-29T04:05:44;96097.50;;;1.98;76.00
53390;BME280;39288;42.970;1.524;2023-12-29T04:06:44;96098.22;;;1.82;76.96
53390;BME280;39288;42.970;1.524;2023-12-29T04:07:45;96094.19;;;1.63;76.72
53390;BME280;39288;42.970;1.524;2023-12-29T04:08:45;96099.69;;;1.50;78.03
53390;BME280;39288;42.970;1.524;2023-12-29T04:09:45;96099.91;;;1.60;77.88
53390;BME280;39288;42.970;1.524;2023-12-29T04:10:46;96100.09;;;1.70;76.45
53390;BME280;39288;42.970;1.524;2023-12-29T04:11:46;96099.88;;;2.00;74.71
53390;BME280;39288;42.970;1.524;2023-12-29T04:12:46;96098.94;;;2.17;73.56
53390;BME280;39288;42.970;1.524;2023-12-29T04:13:47;96098.25;;;2.10;73.82
53390;BME280;39288;42.970;1.524;2023-12-29T04:14:48;96100.88;;;2.10;73.80
53390;BME280;39288;42.970;1.524;2023-12-29T04:15:48;96098.34;;;2.15;73.65
53390;BME280;39288;42.970;1.524;2023-12-29T04:16:48;96094.13;;;2.14;74.30
53390;BME280;39288;42.970;1.524;2023-12-29T04:17:49;96103.16;;;2.18;73.83
53390;BME280;39288;42.970;1.524;2023-12-29T04:18:49;96109.66;;;2.16;74.71
53390;BME280;39288;42.970;1.524;2023-12-29T04:19:49;96105.66;;;2.13;74.74
53390;BME280;39288;42.970;1.524;2023-12-29T04:20:50;96106.47;;;2.14;75.71
53390;BME280;39288;42.970;1.524;2023-12-29T04:21:51;96103.41;;;2.05;76.12
53390;BME280;39288;42.970;1.524;2023-12-29T04:22:52;96096.00;;;2.02;75.77
53390;BME280;39288;42.970;1.524;2023-12-29T04:23:52;96104.09;;;2.01;76.20
53390;BME280;39288;42.970;1.524;2023-12-29T04:24:53;96101.22;;;1.85;76.47
53390;BME280;39288;42.970;1.524;2023-12-29T04:25:53;96107.28;;;1.74;77.13
53390;BME280;39288;42.970;1.524;2023-12-29T04:26:54;96102.16;;;1.68;77.05
53390;BME280;39288;42.970;1.524;2023-12-29T04:27:54;96093.25;;;1.69;77.06
53390;BME280;39288;42.970;1.524;2023-12-29T04:28:54;96095.78;;;1.64;76.80
53390;BME280;39288;42.970;1.524;2023-12-29T04:29:55;96091.13;;;1.54;77.49
53390;BME280;39288;42.970;1.524;2023-12-29T04:30:55;96094.75;;;1.53;78.14
53390;BME280;39288;42.970;1.524;2023-12-29T04:31:55;96097.03;;;2.01;76.53
53390;BME280;39288;42.970;1.524;2023-12-29T04:32:56;96104.56;;;2.09;76.60
53390;BME280;39288;42.970;1.524;2023-12-29T04:33:56;96103.28;;;2.12;76.64
53390;BME280;39288;42.970;1.524;2023-12-29T04:34:56;96104.56;;;2.09;76.77
53390;BME280;39288;42.970;1.524;2023-12-29T04:35:57;96093.25;;;2.09;76.41
53390;BME280;39288;42.970;1.524;2023-12-29T04:36:57;96099.31;;;2.09;76.37
53390;BME280;39288;42.970;1.524;2023-12-29T04:37:58;96089.94;;;2.30;75.98
53390;BME280;39288;42.970;1.524;2023-12-29T04:38:58;96092.66;;;2.35;74.56
53390;BME280;39288;42.970;1.524;2023-12-29T04:39:58;96089.63;;;2.27;75.17
53390;BME280;39288;42.970;1.524;2023-12-29T04:40:59;96086.06;;;2.04;76.43
53390;BME280;39288;42.970;1.524;2023-12-29T04:41:59;96087.94;;;1.92;77.03
53390;BME280;39288;42.970;1.524;2023-12-29T04:42:59;96084.28;;;1.93;77.31
53390;BME280;39288;42.970;1.524;2023-12-29T04:44:00;96088.22;;;2.36;75.33
53390;BME280;39288;42.970;1.524;2023-12-29T04:45:00;96086.59;;;2.35;75.17
53390;BME280;39288;42.970;1.524;2023-12-29T04:46:01;96085.72;;;2.29;75.85
53390;BME280;39288;42.970;1.524;2023-12-29T04:47:01;96079.50;;;2.18;76.38
53390;BME280;39288;42.970;1.524;2023-12-29T04:48:02;96086.41;;;2.08;76.90
53390;BME280;39288;42.970;1.524;2023-12-29T04:49:02;96085.09;;;2.10;76.47
53390;BME280;39288;42.970;1.524;2023-12-29T04:50:03;96088.78;;;2.09;76.76
53390;BME280;39288;42.970;1.524;2023-12-29T04:51:04;96087.38;;;2.18;75.85
53390;BME280;39288;42.970;1.524;2023-12-29T04:52:04;96083.16;;;2.17;75.06
53390;BME280;39288;42.970;1.524;2023-12-29T04:53:05;96081.81;;;2.32;74.89
53390;BME280;39288;42.970;1.524;2023-12-29T04:54:05;96077.13;;;2.34;74.66
53390;BME280;39288;42.970;1.524;2023-12-29T04:55:06;96085.41;;;2.42;75.11
53390;BME280;39288;42.970;1.524;2023-12-29T04:56:06;96085.72;;;2.29;75.44
53390;BME280;39288;42.970;1.524;2023-12-29T04:57:07;96086.25;;;2.14;76.05
53390;BME280;39288;42.970;1.524;2023-12-29T04:58:07;96096.00;;;2.02;76.58
53390;BME280;39288;42.970;1.524;2023-12-29T04:59:07;96086.66;;;1.95;76.62
53390;BME280;39288;42.970;1.524;2023-12-29T05:00:08;96092.25;;;1.98;76.54
53390;BME280;39288;42.970;1.524;2023-12-29T05:01:09;96091.66;;;2.08;76.04
53390;BME280;39288;42.970;1.524;2023-12-29T05:02:09;96095.00;;;2.20;75.88
53390;BME280;39288;42.970;1.524;2023-12-29T05:03:10;96093.94;;;2.33;74.75
53390;BME280;39288;42.970;1.524;2023-12-29T05:04:10;96092.03;;;2.45;74.94
53390;BME280;39288;42.970;1.524;2023-12-29T05:05:10;96090.91;;;2.41;74.66
53390;BME280;39288;42.970;1.524;2023-12-29T05:06:11;96105.09;;;2.40;74.85
53390;BME280;39288;42.970;1.524;2023-12-29T05:07:11;96090.72;;;2.31;75.44
53390;BME280;39288;42.970;1.524;2023-12-29T05:08:12;96084.69;;;2.30;75.47
53390;BME280;39288;42.970;1.524;2023-12-29T05:09:12;96094.97;;;2.32;75.51
53390;BME280;39288;42.970;1.524;2023-12-29T05:10:13;96102.66;;;2.21;75.57
53390;BME280;39288;42.970;1.524;2023-12-29T05:11:13;96097.25;;;2.00;75.97
53390;BME280;39288;42.970;1.524;2023-12-29T05:12:14;96098.91;;;1.89;76.92
53390;BME280;39288;42.970;1.524;2023-12-29T05:13:15;96101.97;;;1.98;77.20
53390;BME280;39288;42.970;1.524;2023-12-29T05:14:15;96092.38;;;1.92;77.08
53390;BME280;39288;42.970;1.524;2023-12-29T05:15:16;96096.50;;;1.99;76.59
53390;BME280;39288;42.970;1.524;2023-12-29T05:16:16;96091.13;;;1.94;76.82
53390;BME280;39288;42.970;1.524;2023-12-29T05:17:17;96097.25;;;2.00;77.07
53390;BME280;39288;42.970;1.524;2023-12-29T05:18:17;96101.38;;;2.07;76.59
53390;BME280;39288;42.970;1.524;2023-12-29T05:19:17;96087.75;;;2.10;76.53
53390;BME280;39288;42.970;1.524;2023-12-29T05:20:19;96088.59;;;1.99;76.71
53390;BME280;39288;42.970;1.524;2023-12-29T05:21:19;96089.06;;;1.96;76.73
53390;BME280;39288;42.970;1.524;2023-12-29T05:22:21;96094.88;;;1.98;77.14
53390;BME280;39288;42.970;1.524;2023-12-29T05:23:21;96092.25;;;1.98;76.40
53390;BME280;39288;42.970;1.524;2023-12-29T05:24:21;96095.44;;;2.00;76.36
53390;BME280;39288;42.970;1.524;2023-12-29T05:25:22;96080.81;;;2.04;76.15
53390;BME280;39288;42.970;1.524;2023-12-29T05:26:24;96092.13;;;2.05;76.36
53390;BME280;39288;42.970;1.524;2023-12-29T05:27:24;96086.06;;;2.04;76.00
53390;BME280;39288;42.970;1.524;2023-12-29T05:28:25;96089.03;;;2.08;75.82